Time;durP1;ratioP1;P1;durP2;ratioP2;P2;SDS_P1;SDS_P2;PMS_P1;PMS_P2;Temp;Humidity;BMP_temperature;BMP_pressure;BME280_temperature;BME280_humidity;BME280_pressure;Samples;Min_cycle;Max_cycle;Signal;HPM_P1;HPM_P2
2022/09/14 00:00:12;;;;;;;16.20;3.22;;;;;;;18.01;92.26;100338.00;5085101;28;20367;-58
2022/09/14 00:02:40;;;;;;;16.80;3.40;;;;;;;18.02;95.08;100331.59;5095766;28;20043;-58
2022/09/14 00:05:07;;;;;;;8.30;3.15;;;;;;;18.08;93.25;100339.84;5095549;28;20047;-57
2022/09/14 00:07:34;;;;;;;11.32;3.25;;;;;;;17.88;91.55;100329.19;5096069;28;20055;-57
2022/09/14 00:10:00;;;;;;;15.80;3.83;;;;;;;17.74;92.98;100323.84;5095967;28;20089;-58
2022/09/14 00:12:27;;;;;;;14.18;3.80;;;;;;;17.79;92.60;100317.81;5095868;28;20040;-58
2022/09/14 00:14:54;;;;;;;11.25;3.30;;;;;;;17.78;92.97;100311.66;5094520;28;20089;-57
2022/09/14 00:17:20;;;;;;;11.73;3.10;;;;;;;17.78;93.35;100311.66;5095669;28;20040;-57
2022/09/14 00:19:47;;;;;;;9.57;2.92;;;;;;;17.74;92.37;100309.63;5095435;28;20074;-57
2022/09/14 00:22:14;;;;;;;11.65;3.40;;;;;;;17.79;90.92;100307.09;5095741;28;20511;-57
2022/09/14 00:24:41;;;;;;;14.48;3.13;;;;;;;17.76;91.54;100303.00;5094767;28;20093;-57
2022/09/14 00:27:09;;;;;;;10.70;3.40;;;;;;;17.81;91.74;100291.63;5094335;28;20046;-57
2022/09/14 00:29:36;;;;;;;13.88;3.25;;;;;;;17.86;92.44;100289.16;5095439;28;20054;-57
2022/09/14 00:32:03;;;;;;;17.48;3.30;;;;;;;17.92;92.31;100285.63;5095781;28;20493;-56
2022/09/14 00:34:30;;;;;;;10.13;2.95;;;;;;;17.89;94.03;100272.63;5095148;28;20051;-57
2022/09/14 00:36:57;;;;;;;11.77;3.10;;;;;;;17.80;92.38;100266.66;5094404;28;20048;-58
2022/09/14 00:39:24;;;;;;;14.38;2.83;;;;;;;17.78;92.84;100254.50;5078633;28;20334;-57
2022/09/14 00:41:51;;;;;;;9.95;2.90;;;;;;;17.80;93.20;100249.75;5057342;28;20040;-57
2022/09/14 00:46:57;;;;;;;12.75;2.85;;;;;;;17.71;91.22;100249.16;5109804;27;20379;-57
2022/09/14 00:49:41;;;;;;;11.40;3.00;;;;;;;17.59;91.31;100243.63;5110120;28;20543;-57
2022/09/14 00:52:12;;;;;;;9.45;2.90;;;;;;;17.52;90.57;100239.31;5110218;28;20059;-57
2022/09/14 00:54:41;;;;;;;;;;;;;;;17.43;90.99;100231.53;5110464;28;20122;-58
2022/09/14 00:57:07;;;;;;;8.27;2.80;;;;;;;17.48;90.91;100238.09;5108374;28;19969;-57
2022/09/14 00:59:37;;;;;;;10.13;3.10;;;;;;;17.34;90.44;100234.66;5108687;28;20441;-57
2022/09/14 01:02:05;;;;;;;11.05;2.85;;;;;;;17.34;90.53;100235.47;5109727;28;20066;-58
2022/09/14 01:04:32;;;;;;;11.73;2.72;;;;;;;17.41;91.77;100235.47;5109258;28;20040;-57
2022/09/14 01:07:39;;;;;;;13.20;2.80;;;;;;;17.52;92.82;100234.78;5109999;28;20059;-57
2022/09/14 01:13:13;;;;;;;16.02;2.88;;;;;;;17.60;91.83;100242.59;5110173;27;20384;-57
2022/09/14 01:16:14;;;;;;;8.85;2.95;;;;;;;17.36;89.72;100235.25;5108962;28;20048;-57
2022/09/14 01:18:46;;;;;;;8.88;2.85;;;;;;;17.49;91.82;100237.91;5108779;28;20043;-57
2022/09/14 01:21:25;;;;;;;9.40;2.92;;;;;;;17.44;89.69;100237.69;5109796;28;20097;-58
2022/09/14 01:27:12;;;;;;;13.18;2.80;;;;;;;17.54;90.32;100246.13;5109970;27;20365;-58
2022/09/14 01:29:49;;;;;;;9.77;2.90;;;;;;;17.46;89.56;100247.19;5109923;28;20101;-58
2022/09/14 01:32:21;;;;;;;11.82;2.80;;;;;;;17.39;88.51;100243.72;5109640;28;20050;-58
2022/09/14 01:34:57;;;;;;;8.43;2.50;;;;;;;17.36;88.64;100236.06;5110115;28;20039;-58
2022/09/14 01:37:32;;;;;;;14.60;2.92;;;;;;;17.40;88.89;100237.28;5109706;28;20039;-58
2022/09/14 01:40:11;;;;;;;8.52;2.90;;;;;;;17.48;90.36;100241.59;5109684;28;20048;-58
2022/09/14 01:42:41;;;;;;;10.02;2.70;;;;;;;17.49;91.53;100247.81;5109682;28;20052;-59
2022/09/14 01:45:12;;;;;;;12.32;3.00;;;;;;;17.44;88.81;100256.47;5109846;28;20085;-58
2022/09/14 01:47:46;;;;;;;13.98;3.33;;;;;;;17.50;88.91;100254.78;5085822;28;20042;-58
2022/09/14 01:50:19;;;;;;;10.10;2.80;;;;;;;17.40;88.32;100249.88;5089388;28;20102;-59
2022/09/14 01:52:51;;;;;;;14.57;3.00;;;;;;;17.33;89.42;100246.41;5089233;28;20048;-59
2022/09/14 01:55:35;;;;;;;13.68;3.08;;;;;;;17.27;91.29;100253.44;5104608;28;20047;-59
2022/09/14 01:58:09;;;;;;;8.15;2.72;;;;;;;17.43;93.28;100252.16;5105056;28;20045;-59
2022/09/14 02:00:42;;;;;;;11.35;3.10;;;;;;;17.49;91.82;100250.47;5108418;28;20103;-59
2022/09/14 02:03:14;;;;;;;13.20;2.90;;;;;;;17.57;91.88;100243.03;5107739;28;20174;-59
2022/09/14 02:05:55;;;;;;;12.75;3.00;;;;;;;17.52;90.25;100247.34;5107865;28;20486;-58
2022/09/14 02:08:26;;;;;;;9.07;3.00;;;;;;;17.64;89.53;100251.03;5109413;28;20058;-59
2022/09/14 02:10:53;;;;;;;13.77;3.00;;;;;;;17.54;87.92;100248.81;5107777;28;20039;-58
2022/09/14 02:13:19;;;;;;;14.55;3.15;;;;;;;17.61;89.59;100248.78;5107977;28;20052;-58
2022/09/14 02:15:46;;;;;;;11.68;3.10;;;;;;;17.63;90.70;100252.09;5108033;28;20032;-58
2022/09/14 02:18:13;;;;;;;13.43;3.22;;;;;;;17.34;88.76;100246.19;5108848;28;20040;-58
2022/09/14 02:20:48;;;;;;;11.38;2.95;;;;;;;17.42;89.24;100245.94;5108891;28;20043;-58
2022/09/14 02:23:16;;;;;;;9.43;3.00;;;;;;;17.38;88.98;100244.72;5109014;28;20036;-58
2022/09/14 02:25:43;;;;;;;11.02;3.30;;;;;;;17.30;90.07;100242.28;5108461;28;20044;-58
2022/09/14 02:28:10;;;;;;;12.55;3.25;;;;;;;17.27;92.67;100240.84;5108886;28;20036;-58
2022/09/14 02:31:05;;;;;;;14.48;3.20;;;;;;;17.28;92.50;100238.97;5108608;28;20040;-58
2022/09/14 02:34:11;;;;;;;16.90;3.53;;;;;;;17.21;92.69;100232.84;5090818;28;20052;-58
2022/09/14 02:37:09;;;;;;;12.25;3.05;;;;;;;17.32;94.26;100232.19;5101425;28;20055;-58
2022/09/14 02:40:03;;;;;;;14.38;3.30;;;;;;;17.32;94.80;100225.97;5094016;28;20052;-59
2022/09/14 02:45:34;;;;;;;13.20;3.42;;;;;;;17.30;94.89;100220.00;5109677;27;20388;-57
2022/09/14 02:51:29;;;;;;;12.38;3.40;;;;;;;17.13;94.39;100217.78;5109777;27;20351;-57
2022/09/14 02:54:05;;;;;;;12.98;3.58;;;;;;;17.21;96.37;100216.75;5109963;28;20046;-57
2022/09/14 02:56:34;;;;;;;10.02;3.72;;;;;;;17.13;96.56;100208.94;5109603;28;20044;-57
2022/09/14 02:59:02;;;;;;;16.25;4.63;;;;;;;16.98;95.96;100196.59;5108968;28;20040;-57
2022/09/14 03:01:29;;;;;;;13.25;4.00;;;;;;;16.89;95.88;100192.50;5109637;28;20055;-57
2022/09/14 03:03:55;;;;;;;11.40;3.72;;;;;;;16.75;95.27;100193.50;5108764;28;20063;-57
2022/09/14 03:06:22;;;;;;;14.57;4.22;;;;;;;16.83;97.13;100198.69;5091695;28;20489;-58
2022/09/14 03:08:49;;;;;;;18.17;5.03;;;;;;;16.77;95.99;100184.25;5109398;28;20040;-57
2022/09/14 03:11:16;;;;;;;12.20;4.05;;;;;;;16.74;96.78;100179.31;5109677;28;20131;-58
2022/09/14 03:13:43;;;;;;;14.65;4.43;;;;;;;16.93;96.74;100179.50;5109589;28;20048;-58
2022/09/14 03:16:14;;;;;;;14.27;4.45;;;;;;;16.85;97.78;100185.91;5109349;28;20098;-57
2022/09/14 03:18:41;;;;;;;16.35;4.25;;;;;;;16.85;96.45;100177.88;5109488;28;20131;-58
2022/09/14 03:21:10;;;;;;;16.15;4.93;;;;;;;16.88;96.38;100172.94;5108306;28;20039;-57
2022/09/14 03:23:39;;;;;;;14.63;4.50;;;;;;;16.81;97.80;100176.63;5107921;28;20485;-57
2022/09/14 03:26:09;;;;;;;13.77;4.88;;;;;;;16.87;96.87;100157.88;5109439;28;20051;-57
2022/09/14 03:28:36;;;;;;;16.92;4.80;;;;;;;16.82;96.96;100157.63;5109273;28;20040;-57
2022/09/14 03:31:05;;;;;;;15.75;5.15;;;;;;;16.70;98.69;100159.34;5109024;28;20040;-57
2022/09/14 03:33:33;;;;;;;12.45;5.63;;;;;;;16.66;98.30;100160.75;5108065;28;20497;-57
2022/09/14 03:36:07;;;;;;;13.25;5.30;;;;;;;16.54;98.56;100163.25;5107741;28;20105;-57
2022/09/14 03:38:34;;;;;;;16.55;5.18;;;;;;;16.56;99.63;100155.84;5109041;28;20101;-58
2022/09/14 03:41:00;;;;;;;14.82;5.82;;;;;;;16.55;100.00;100156.03;5109202;28;20550;-58
2022/09/14 03:43:27;;;;;;;16.17;5.82;;;;;;;16.44;100.00;100157.47;5108617;28;20040;-58
2022/09/14 03:45:54;;;;;;;16.25;5.78;;;;;;;16.49;98.91;100153.16;5109135;28;20040;-58
2022/09/14 03:48:20;;;;;;;18.75;6.32;;;;;;;16.55;100.00;100151.50;5099680;28;20444;-57
2022/09/14 03:50:47;;;;;;;14.45;5.97;;;;;;;16.65;100.00;100153.78;5088195;28;20098;-58
2022/09/14 03:53:14;;;;;;;17.08;6.28;;;;;;;16.45;100.00;100154.59;5087911;28;20486;-58
2022/09/14 03:55:40;;;;;;;17.98;6.05;;;;;;;16.45;99.69;100154.59;5088593;28;20045;-58
2022/09/14 03:58:07;;;;;;;15.35;6.55;;;;;;;16.46;99.77;100152.75;5088124;28;20068;-58
2022/09/14 04:00:34;;;;;;;15.48;6.57;;;;;;;16.54;99.70;100152.53;5097989;28;20512;-58
2022/09/14 04:03:02;;;;;;;13.38;6.57;;;;;;;16.59;99.48;100152.75;5093324;28;20040;-57
2022/09/14 04:05:29;;;;;;;17.50;7.25;;;;;;;16.66;100.00;100150.03;5094509;28;20189;-58
2022/09/14 04:07:56;;;;;;;16.10;6.65;;;;;;;16.59;100.00;100150.06;5093993;28;20398;-58
2022/09/14 04:10:22;;;;;;;19.10;7.43;;;;;;;16.59;99.67;100146.56;5094443;28;20044;-58
2022/09/14 04:12:49;;;;;;;14.95;6.57;;;;;;;16.51;99.34;100144.91;5094023;28;20044;-58
2022/09/14 04:15:16;;;;;;;14.98;7.38;;;;;;;16.34;100.00;100141.84;5094942;28;20511;-58
2022/09/14 04:17:42;;;;;;;20.42;7.70;;;;;;;16.42;100.00;100146.16;5093375;28;20139;-58
2022/09/14 04:20:09;;;;;;;18.05;7.57;;;;;;;16.54;99.90;100149.06;5094604;28;20044;-58
2022/09/14 04:22:36;;;;;;;14.68;8.07;;;;;;;16.57;99.91;100140.59;5076965;28;20036;-58
2022/09/14 04:25:03;;;;;;;16.20;8.77;;;;;;;16.61;100.00;100148.00;5093612;28;20055;-59
2022/09/14 04:27:30;;;;;;;14.10;7.45;;;;;;;16.67;100.00;100144.47;5094879;28;20147;-58
2022/09/14 04:29:56;;;;;;;16.45;8.20;;;;;;;16.54;99.64;100147.19;5094424;28;20036;-58
2022/09/14 04:32:24;;;;;;;13.38;7.72;;;;;;;16.50;99.25;100143.28;5093315;28;20067;-58
2022/09/14 04:34:51;;;;;;;14.02;7.40;;;;;;;16.36;100.00;100145.13;5094531;28;20101;-58
2022/09/14 04:37:18;;;;;;;17.73;8.10;;;;;;;16.37;100.00;100141.44;5076477;28;20114;-58
2022/09/14 04:39:45;;;;;;;15.88;8.23;;;;;;;16.36;100.00;100141.66;5094241;28;20508;-59
2022/09/14 04:42:12;;;;;;;22.17;8.45;;;;;;;16.28;100.00;100156.03;5060110;28;20047;-58
2022/09/14 04:44:38;;;;;;;19.80;8.38;;;;;;;16.23;100.00;100151.31;5094045;28;20039;-58
2022/09/14 04:47:06;;;;;;;23.05;8.30;;;;;;;16.07;100.00;100146.38;5094264;28;20044;-58
2022/09/14 04:49:32;;;;;;;20.55;8.75;;;;;;;16.06;100.00;100147.38;5093887;28;20439;-58
2022/09/14 04:51:59;;;;;;;18.95;7.78;;;;;;;16.12;100.00;100146.59;5093830;28;20497;-58
2022/09/14 04:54:26;;;;;;;22.98;8.65;;;;;;;15.99;100.00;100146.56;5094249;28;20047;-58
2022/09/14 04:56:52;;;;;;;19.13;7.80;;;;;;;15.86;100.00;100145.53;5093881;28;20036;-59
2022/09/14 04:59:19;;;;;;;22.27;8.35;;;;;;;16.00;100.00;100137.50;5092678;28;20036;-57
2022/09/14 05:01:47;;;;;;;16.73;7.28;;;;;;;15.92;100.00;100139.34;5075815;28;20086;-57
2022/09/14 05:04:14;;;;;;;24.98;7.57;;;;;;;16.05;100.00;100135.88;5093403;28;20146;-57
2022/09/14 05:06:41;;;;;;;19.00;7.93;;;;;;;16.07;100.00;100136.47;5093802;28;20489;-58
2022/09/14 05:09:13;;;;;;;17.95;6.70;;;;;;;16.08;100.00;100137.28;5093722;28;20048;-58
2022/09/14 05:11:41;;;;;;;19.60;6.53;;;;;;;15.95;100.00;100137.28;5092277;28;20051;-58
2022/09/14 05:14:11;;;;;;;18.92;6.32;;;;;;;15.74;100.00;100139.13;5091778;28;20105;-57
2022/09/14 05:16:40;;;;;;;20.83;5.88;;;;;;;15.74;100.00;100141.78;5094107;28;20440;-57
2022/09/14 05:19:10;;;;;;;28.52;6.10;;;;;;;15.81;100.00;100139.13;5092138;28;20069;-58
2022/09/14 05:21:37;;;;;;;17.33;5.85;;;;;;;15.70;100.00;100136.00;5092316;28;20040;-58
2022/09/14 05:24:11;;;;;;;19.35;5.40;;;;;;;15.67;100.00;100128.38;5093508;28;20052;-57
2022/09/14 05:26:38;;;;;;;19.52;5.57;;;;;;;15.90;100.00;100129.91;5075605;28;20075;-57
2022/09/14 05:29:04;;;;;;;16.75;4.88;;;;;;;15.70;100.00;100130.66;5092194;28;20464;-58
2022/09/14 05:31:31;;;;;;;17.70;5.03;;;;;;;15.82;100.00;100130.88;5058365;28;20043;-58
2022/09/14 05:33:59;;;;;;;12.70;4.63;;;;;;;15.88;100.00;100122.06;5092964;28;20079;-58
2022/09/14 05:36:26;;;;;;;17.20;4.50;;;;;;;15.82;100.00;100122.06;5091901;28;20044;-58
2022/09/14 05:38:53;;;;;;;18.33;4.95;;;;;;;15.82;100.00;100120.19;5094014;28;20489;-57
2022/09/14 05:41:20;;;;;;;17.77;5.05;;;;;;;15.85;100.00;100127.00;5092669;28;20051;-58
2022/09/14 05:43:47;;;;;;;19.48;5.13;;;;;;;15.84;100.00;100123.47;5092262;28;20382;-57
2022/09/14 05:46:18;;;;;;;15.30;4.45;;;;;;;15.87;100.00;100122.28;5091245;28;20143;-58
2022/09/14 05:48:46;;;;;;;15.13;4.57;;;;;;;15.68;100.00;100129.19;5088261;28;20045;-57
2022/09/14 05:51:16;;;;;;;18.75;4.95;;;;;;;15.77;100.00;100124.50;5071778;28;20044;-57
2022/09/14 05:53:48;;;;;;;19.92;4.88;;;;;;;15.83;99.99;100121.84;5072022;28;20121;-58
2022/09/14 05:56:16;;;;;;;17.00;4.68;;;;;;;15.82;99.75;100120.19;5081993;28;20044;-57
2022/09/14 05:58:43;;;;;;;16.65;4.55;;;;;;;15.79;100.00;100130.47;5099664;28;20097;-55
2022/09/14 06:01:12;;;;;;;16.40;4.85;;;;;;;15.82;100.00;100128.22;5096695;28;20484;-54
2022/09/14 06:03:39;;;;;;;18.38;4.70;;;;;;;15.94;100.00;100133.81;5077474;28;20158;-55
2022/09/14 06:06:11;;;;;;;18.25;4.47;;;;;;;16.05;100.00;100127.84;5075606;28;20035;-54
2022/09/14 06:08:38;;;;;;;16.88;4.22;;;;;;;15.96;98.66;100133.59;5074941;28;20049;-54
2022/09/14 06:11:09;;;;;;;19.10;4.22;;;;;;;15.85;99.81;100135.03;5085674;28;20040;-55
2022/09/14 06:13:36;;;;;;;16.98;4.03;;;;;;;15.83;99.54;100135.22;5094866;28;20043;-55
2022/09/14 06:16:09;;;;;;;16.73;5.22;;;;;;;15.80;99.69;100135.63;5100719;28;20040;-53
2022/09/14 06:18:38;;;;;;;17.33;4.53;;;;;;;15.78;99.31;100140.34;5087478;28;20119;-55
2022/09/14 06:21:05;;;;;;;14.68;4.22;;;;;;;15.80;99.78;100137.47;5103624;28;20032;-55
2022/09/14 06:23:32;;;;;;;12.20;4.03;;;;;;;15.86;99.30;100137.50;5106068;28;20047;-54
2022/09/14 06:26:02;;;;;;;13.25;3.72;;;;;;;15.88;100.00;100139.94;5093311;28;20044;-53
2022/09/14 06:28:31;;;;;;;15.25;3.88;;;;;;;15.88;98.90;100140.78;5082803;28;20136;-54
2022/09/14 06:30:58;;;;;;;14.05;3.50;;;;;;;15.90;98.81;100133.38;5090077;28;20094;-53
2022/09/14 06:33:25;;;;;;;9.60;3.22;;;;;;;15.96;97.14;100137.09;5084383;28;20043;-53
2022/09/14 06:35:55;;;;;;;11.80;3.33;;;;;;;15.82;97.69;100136.25;5093652;28;20044;-53
2022/09/14 06:38:22;;;;;;;14.02;3.50;;;;;;;15.84;98.08;100128.03;5081886;28;20566;-54
2022/09/14 06:40:53;;;;;;;19.38;3.80;;;;;;;15.87;98.86;100136.47;5089378;28;20106;-54
2022/09/14 06:43:19;;;;;;;18.48;3.50;;;;;;;15.88;99.20;100143.47;5085368;28;20041;-53
2022/09/14 06:45:56;;;;;;;13.52;3.65;;;;;;;15.78;98.18;100135.00;5100219;28;20044;-55
2022/09/14 06:48:23;;;;;;;12.68;3.58;;;;;;;15.65;99.71;100130.44;5090399;28;20039;-54
2022/09/14 06:50:50;;;;;;;13.98;3.58;;;;;;;15.71;98.90;100136.81;5092037;28;20089;-54
2022/09/14 06:53:17;;;;;;;12.98;3.63;;;;;;;15.65;99.17;100141.13;5092854;28;20500;-54
2022/09/14 06:55:44;;;;;;;14.80;3.67;;;;;;;15.76;99.05;100139.75;5085727;28;21498;-55
2022/09/14 06:58:13;;;;;;;17.25;4.03;;;;;;;15.62;100.00;100135.34;5096228;28;20055;-54
2022/09/14 07:00:40;;;;;;;13.05;3.67;;;;;;;15.53;99.99;100145.41;5100362;28;20041;-55
2022/09/14 07:03:07;;;;;;;14.88;3.53;;;;;;;15.71;100.00;100134.94;5087551;28;20481;-54
2022/09/14 07:05:34;;;;;;;14.18;3.65;;;;;;;15.78;99.43;100134.19;5105361;28;20047;-55
2022/09/14 07:08:01;;;;;;;13.93;3.47;;;;;;;15.73;99.16;100135.59;5099373;28;20031;-55
2022/09/14 07:10:27;;;;;;;11.85;3.42;;;;;;;15.58;98.88;100137.59;5094263;28;20085;-54
2022/09/14 07:12:54;;;;;;;14.10;3.30;;;;;;;15.47;98.65;100138.19;5098175;28;20044;-54
2022/09/14 07:15:21;;;;;;;12.15;3.85;;;;;;;15.53;99.33;100135.56;5104252;28;20036;-54
2022/09/14 07:17:48;;;;;;;13.00;3.15;;;;;;;15.41;99.38;100138.97;5094832;28;20067;-54
2022/09/14 07:20:15;;;;;;;14.93;3.70;;;;;;;15.21;100.00;100134.41;5094929;28;20089;-54
2022/09/14 07:22:41;;;;;;;11.70;3.22;;;;;;;15.37;100.00;100133.22;5080766;28;20044;-54
2022/09/14 07:25:09;;;;;;;15.88;3.28;;;;;;;15.45;100.00;100134.91;5078152;28;20044;-54
2022/09/14 07:27:38;;;;;;;13.52;3.55;;;;;;;15.56;100.00;100134.31;5091910;28;20071;-54
2022/09/14 07:30:06;;;;;;;12.90;3.70;;;;;;;15.64;100.00;100131.44;5088704;28;20035;-55
2022/09/14 07:32:33;;;;;;;11.18;3.35;;;;;;;15.26;100.00;100133.78;5104203;28;20040;-54
2022/09/14 07:35:00;;;;;;;16.25;3.75;;;;;;;15.23;100.00;100135.03;5110273;28;20043;-55
2022/09/14 07:37:28;;;;;;;13.75;3.63;;;;;;;15.16;100.00;100143.00;5099373;28;20040;-55
2022/09/14 07:39:56;;;;;;;11.20;3.42;;;;;;;15.35;100.00;100127.25;5098479;28;20044;-56
2022/09/14 07:42:22;;;;;;;12.90;3.65;;;;;;;15.25;100.00;100140.16;5080240;28;20435;-54
2022/09/14 07:44:49;;;;;;;13.40;3.78;;;;;;;15.37;100.00;100138.56;5096955;28;20037;-53
2022/09/14 07:47:16;;;;;;;17.35;4.18;;;;;;;15.43;100.00;100134.28;5093329;28;20059;-54
2022/09/14 07:49:43;;;;;;;18.02;4.00;;;;;;;15.55;100.00;100136.16;5106281;28;20439;-54
2022/09/14 07:52:10;;;;;;;16.55;4.57;;;;;;;15.50;100.00;100137.81;5098260;28;20787;-53
2022/09/14 07:54:37;;;;;;;14.93;4.15;;;;;;;15.50;100.00;100138.63;5094495;28;20036;-54
2022/09/14 07:57:03;;;;;;;12.98;4.00;;;;;;;15.48;100.00;100134.47;5085517;28;20068;-55
2022/09/14 07:59:30;;;;;;;15.02;4.57;;;;;;;15.49;100.00;100134.28;5104074;28;20459;-54
2022/09/14 08:02:01;;;;;;;12.80;4.22;;;;;;;15.63;100.00;100131.66;5080519;28;20035;-54
2022/09/14 08:04:39;;;;;;;14.23;4.60;;;;;;;15.67;100.00;100131.03;5116151;27;20378;-55
2022/09/14 08:07:08;;;;;;;14.52;4.40;;;;;;;15.60;100.00;100127.53;5115988;27;20035;-55
2022/09/14 08:09:46;;;;;;;14.43;4.97;;;;;;;15.48;99.79;100129.97;5125417;27;20350;-54
2022/09/14 08:12:15;;;;;;;14.32;4.95;;;;;;;15.59;99.70;100120.56;5114755;28;20497;-53
2022/09/14 08:14:44;;;;;;;19.05;5.80;;;;;;;15.42;100.00;100119.25;5099380;27;20404;-58
2022/09/14 08:17:22;;;;;;;11.02;5.55;;;;;;;15.48;100.00;100118.44;5082260;27;20187;-58
2022/09/14 08:20:00;;;;;;;16.95;5.82;;;;;;;15.48;100.00;100113.09;5048492;28;20393;-57
2022/09/14 08:22:29;;;;;;;12.23;5.15;;;;;;;15.37;100.00;100117.16;5046250;28;20034;-57
2022/09/14 08:24:58;;;;;;;16.98;5.75;;;;;;;15.44;100.00;100103.84;5040592;28;20037;-57
2022/09/14 08:27:37;;;;;;;11.77;5.22;;;;;;;15.54;100.00;100109.63;5094035;27;20174;-59
2022/09/14 08:30:08;;;;;;;14.23;5.07;;;;;;;15.57;100.00;100108.41;5094205;27;20040;-59
2022/09/14 08:32:46;;;;;;;14.93;5.18;;;;;;;15.48;100.00;100110.41;5122908;27;20362;-58
2022/09/14 08:35:15;;;;;;;12.50;4.70;;;;;;;15.65;100.00;100113.56;5108332;27;20039;-57
2022/09/14 08:37:46;;;;;;;9.30;4.97;;;;;;;15.58;100.00;100107.38;5118411;28;20070;-57
2022/09/14 08:40:23;;;;;;;13.98;4.93;;;;;;;15.40;100.00;100116.78;5065899;28;20361;-57
2022/09/14 08:42:57;;;;;;;13.15;4.80;;;;;;;15.24;100.00;100109.94;5060846;28;20041;-60
2022/09/14 08:45:27;;;;;;;15.55;4.53;;;;;;;15.30;100.00;100111.00;5055195;28;20052;-57
2022/09/14 08:47:58;;;;;;;13.27;4.70;;;;;;;15.30;100.00;100103.00;5062789;28;20037;-57
2022/09/14 08:50:28;;;;;;;13.00;4.47;;;;;;;15.37;100.00;100103.81;5067609;28;20041;-57
2022/09/14 08:52:58;;;;;;;15.40;4.82;;;;;;;15.33;100.00;100106.09;5064535;28;20044;-57
2022/09/14 08:55:40;;;;;;;17.50;4.85;;;;;;;15.25;100.00;100111.59;5057792;28;20045;-57
2022/09/14 08:58:46;;;;;;;12.57;4.57;;;;;;;15.28;100.00;100108.53;5059096;28;20343;-56
2022/09/14 09:01:39;;;;;;;14.23;4.53;;;;;;;15.27;100.00;100114.06;5109267;27;20125;-58
2022/09/14 09:04:34;;;;;;;16.10;4.57;;;;;;;15.33;100.00;100111.44;5107420;27;20367;-57
2022/09/14 09:07:20;;;;;;;27.55;5.30;;;;;;;15.31;100.00;100108.13;5107207;28;20040;-57
2022/09/14 09:09:57;;;;;;;15.65;4.88;;;;;;;15.15;100.00;100103.97;5121098;27;20893;-57
2022/09/14 09:12:47;;;;;;;12.43;4.93;;;;;;;15.34;100.00;100117.59;5115643;27;20496;-58
2022/09/14 09:15:39;;;;;;;11.50;5.65;;;;;;;15.38;100.00;100105.47;5102996;28;20040;-57
2022/09/14 09:18:41;;;;;;;15.52;7.47;;;;;;;15.30;100.00;100116.34;5100823;27;20363;-58
2022/09/14 09:21:24;;;;;;;11.57;5.40;;;;;;;15.51;100.00;100116.19;5071387;28;20382;-57
2022/09/14 09:24:17;;;;;;;12.95;5.80;;;;;;;15.65;100.00;100121.59;5063634;28;20363;-57
2022/09/14 09:26:47;;;;;;;11.88;5.07;;;;;;;15.71;100.00;100126.13;5082027;28;20086;-57
2022/09/14 09:29:25;;;;;;;13.35;5.97;;;;;;;15.74;100.00;100134.59;5160894;27;19954;-57
2022/09/14 09:32:15;;;;;;;15.13;6.68;;;;;;;15.79;100.00;100131.31;5132704;27;20103;-58
2022/09/14 09:35:03;;;;;;;;;;;;;;;15.65;100.00;100134.97;5123101;27;20046;-59
2022/09/14 09:37:46;;;;;;;14.35;5.72;;;;;;;15.71;100.00;100126.13;5147377;27;19919;-59
2022/09/14 09:40:18;;;;;;;14.05;5.88;;;;;;;15.87;100.00;100125.75;5136009;27;20043;-59
2022/09/14 09:43:06;;;;;;;13.30;6.05;;;;;;;15.76;100.00;100126.38;5120464;27;20049;-59
2022/09/14 09:45:55;;;;;;;12.70;7.15;;;;;;;15.78;100.00;100118.16;5140462;27;20061;-59
2022/09/14 09:48:26;;;;;;;15.60;8.02;;;;;;;15.66;100.00;100113.38;5147212;27;20035;-58
2022/09/14 09:51:05;;;;;;;14.93;8.20;;;;;;;15.54;100.00;100112.31;5142185;27;20043;-58
2022/09/14 09:53:35;;;;;;;16.40;8.43;;;;;;;15.54;100.00;100113.13;5131510;27;20043;-59
2022/09/14 09:56:03;;;;;;;16.33;8.23;;;;;;;15.60;100.00;100116.03;5136061;27;20047;-57
2022/09/14 09:58:35;;;;;;;15.10;7.82;;;;;;;15.53;100.00;100127.53;5138817;27;20047;-60
2022/09/14 10:01:16;;;;;;;15.15;8.00;;;;;;;15.44;100.00;100133.25;5116438;27;20059;-58
2022/09/14 10:03:50;;;;;;;12.63;7.87;;;;;;;15.61;100.00;100120.31;5148745;27;20066;-57
2022/09/14 10:06:17;;;;;;;16.30;7.60;;;;;;;15.60;100.00;100118.69;5127293;27;20035;-58
2022/09/14 10:08:46;;;;;;;13.80;7.45;;;;;;;15.62;100.00;100113.97;5123951;27;20083;-58
2022/09/14 10:11:35;;;;;;;17.38;8.27;;;;;;;15.58;100.00;100116.22;5140741;27;20039;-58
2022/09/14 10:14:03;;;;;;;15.20;7.65;;;;;;;15.63;100.00;100113.78;5143667;27;20491;-58
2022/09/14 10:16:37;;;;;;;15.90;7.88;;;;;;;15.51;100.00;100118.03;5126568;27;20092;-57
2022/09/14 10:19:13;;;;;;;17.27;8.27;;;;;;;15.52;100.00;100119.72;5127121;27;20130;-57
2022/09/14 10:22:03;;;;;;;14.77;7.88;;;;;;;15.57;100.00;100114.56;5139291;27;20127;-58
2022/09/14 10:24:33;;;;;;;15.65;9.15;;;;;;;15.58;100.00;100116.22;5121726;27;20040;-58
2022/09/14 10:27:00;;;;;;;13.77;8.13;;;;;;;15.67;100.00;100108.84;5141426;27;20403;-58
2022/09/14 10:29:43;;;;;;;15.75;8.68;;;;;;;15.74;100.00;100109.72;5129636;27;20035;-58
2022/09/14 10:32:17;;;;;;;13.55;7.95;;;;;;;15.82;100.00;100098.00;5129507;27;20035;-59
2022/09/14 10:34:44;;;;;;;15.98;7.50;;;;;;;15.73;100.00;100097.31;5138669;27;20035;-58
2022/09/14 10:37:26;;;;;;;15.30;7.88;;;;;;;15.60;100.00;100094.63;5138835;27;20032;-58
2022/09/14 10:40:19;;;;;;;15.07;7.63;;;;;;;15.55;100.00;100097.91;5088470;27;20036;-58
2022/09/14 10:43:05;;;;;;;;;;;;;;;15.50;100.00;100092.38;5129422;27;20041;-58
2022/09/14 10:45:45;;;;;;;21.38;11.60;;;;;;;15.68;100.00;100086.41;5126552;27;20337;-58
2022/09/14 10:48:42;;;;;;;16.27;8.13;;;;;;;15.77;100.00;100084.41;5122427;27;20031;-58
2022/09/14 10:51:48;;;;;;;12.98;7.18;;;;;;;15.87;100.00;100085.66;5131320;27;20065;-59
2022/09/14 10:54:55;;;;;;;15.40;7.40;;;;;;;15.92;100.00;100095.75;5126278;27;20392;-58
2022/09/14 10:57:48;;;;;;;14.25;6.85;;;;;;;15.64;100.00;100098.53;5124339;27;20395;-59
2022/09/14 11:00:18;;;;;;;15.05;6.70;;;;;;;15.62;100.00;100103.28;5122996;27;20415;-59
2022/09/14 11:03:01;;;;;;;12.10;7.10;;;;;;;15.62;100.00;100092.56;5093164;27;20035;-58
2022/09/14 11:05:38;;;;;;;12.00;5.88;;;;;;;15.53;100.00;100087.44;5111081;27;20126;-57
2022/09/14 11:08:30;;;;;;;11.48;6.10;;;;;;;15.70;100.00;100093.22;5101045;27;20039;-58
2022/09/14 11:11:35;;;;;;;12.75;6.50;;;;;;;15.66;100.00;100080.44;5120377;27;20091;-58
2022/09/14 11:14:42;;;;;;;13.38;6.90;;;;;;;15.78;100.00;100080.72;5130460;27;20035;-58
2022/09/14 11:20:33;;;;;;;11.63;5.70;;;;;;;15.77;100.00;100074.56;5053015;28;20416;-58
2022/09/14 11:23:16;;;;;;;11.20;5.85;;;;;;;15.72;100.00;100072.44;5064163;28;20184;-58
2022/09/14 11:25:46;;;;;;;;;;;;;;;15.71;100.00;100072.63;5055296;28;20069;-58
2022/09/14 11:28:23;;;;;;;10.10;5.18;;;;;;;15.67;100.00;100071.41;5062253;28;20302;-59
2022/09/14 11:30:55;;;;;;;9.65;5.40;;;;;;;15.76;100.00;100072.06;5067664;28;20041;-59
2022/09/14 11:33:36;;;;;;;12.20;5.32;;;;;;;15.69;100.00;100072.84;5057641;28;20110;-59
2022/09/14 11:36:08;;;;;;;10.30;5.55;;;;;;;15.84;100.00;100066.50;5077568;28;20059;-61
2022/09/14 11:38:43;;;;;;;11.15;5.80;;;;;;;15.84;100.00;100074.53;5059253;28;20068;-59
2022/09/14 11:41:23;;;;;;;10.82;5.30;;;;;;;15.78;100.00;100068.16;5057835;28;20041;-59
2022/09/14 11:43:56;;;;;;;9.85;5.03;;;;;;;15.91;100.00;100070.81;5061480;28;20055;-59
2022/09/14 11:46:30;;;;;;;13.88;5.60;;;;;;;15.77;100.00;100071.88;5054839;28;20132;-60
2022/09/14 11:49:21;;;;;;;11.05;5.40;;;;;;;15.91;100.00;100062.81;5051789;28;20075;-58
2022/09/14 11:51:54;;;;;;;12.30;4.10;;;;;;;15.74;100.00;100070.41;5060971;28;20051;-59
2022/09/14 11:54:23;;;;;;;8.93;4.43;;;;;;;15.66;100.00;100075.94;5060848;28;20418;-58
2022/09/14 11:56:54;;;;;;;8.15;3.90;;;;;;;15.76;100.00;100077.41;5058050;28;20049;-59